Time;durP1;ratioP1;P1;durP2;ratioP2;P2;SDS_P1;SDS_P2;PMS_P1;PMS_P2;Temp;Humidity;BMP_temperature;BMP_pressure;BME280_temperature;BME280_humidity;BME280_pressure;Samples;Min_cycle;Max_cycle;Signal;HPM_P1;HPM_P2
2023/07/02 00:00:17;;;;;;;;;;;;;;;16.78;100.00;95135.78;10512336;28;1886;-73
2023/07/02 00:05:20;;;;;;;;;;;;;;;16.81;100.00;95135.13;10513085;28;2444;-73
2023/07/02 00:10:22;;;;;;;;;;;;;;;16.84;100.00;95133.69;10513037;28;1903;-74
2023/07/02 00:15:25;;;;;;;;;;;;;;;16.84;100.00;95134.47;10510425;28;2085;-73
2023/07/02 00:20:27;;;;;;;;;;;;;;;16.79;100.00;95139.28;10511164;28;2260;-74
2023/07/02 00:25:30;;;;;;;;;;;;;;;16.84;100.00;95134.47;10511466;28;1942;-74
2023/07/02 00:30:32;;;;;;;;;;;;;;;16.83;100.00;95138.31;10511580;28;2095;-76
2023/07/02 00:35:34;;;;;;;;;;;;;;;16.88;100.00;95143.56;10513378;28;2001;-75
2023/07/02 00:40:38;;;;;;;;;;;;;;;16.93;100.00;95129.00;10511342;28;1906;-74
2023/07/02 00:45:41;;;;;;;;;;;;;;;16.92;100.00;95125.50;10510744;28;5871;-76
2023/07/02 00:50:43;;;;;;;;;;;;;;;17.01;100.00;95125.44;10511194;28;2034;-74
2023/07/02 00:55:46;;;;;;;;;;;;;;;17.00;100.00;95132.00;10499855;28;2098;-74
2023/07/02 01:00:48;;;;;;;;;;;;;;;16.98;100.00;95139.66;10507317;28;2138;-74
2023/07/02 01:05:51;;;;;;;;;;;;;;;16.95;100.00;95148.47;10508990;28;2054;-75
2023/07/02 01:10:54;;;;;;;;;;;;;;;16.95;100.00;95146.53;10507942;28;2001;-75
2023/07/02 01:15:56;;;;;;;;;;;;;;;16.91;100.00;95142.09;10508033;28;2383;-75
2023/07/02 01:21:01;;;;;;;;;;;;;;;16.84;100.00;95149.97;10509609;28;2173;-73
2023/07/02 01:26:03;;;;;;;;;;;;;;;16.85;100.00;95149.63;10509940;28;2133;-73
2023/07/02 01:31:06;;;;;;;;;;;;;;;16.90;100.00;95157.59;10511521;28;1953;-75
2023/07/02 01:36:08;;;;;;;;;;;;;;;16.90;100.00;95159.50;10508738;28;2243;-75
2023/07/02 01:41:11;;;;;;;;;;;;;;;16.86;100.00;95153.13;10509493;28;4480;-74
2023/07/02 01:46:14;;;;;;;;;;;;;;;16.83;100.00;95154.59;10504713;28;2075;-74
2023/07/02 01:51:16;;;;;;;;;;;;;;;16.77;100.00;95160.53;10507994;28;2313;-73
2023/07/02 01:56:19;;;;;;;;;;;;;;;16.74;100.00;95156.56;10507415;28;2052;-73
2023/07/02 02:01:21;;;;;;;;;;;;;;;16.60;100.00;95162.19;10507489;28;2041;-73
2023/07/02 02:06:24;;;;;;;;;;;;;;;16.48;100.00;95164.81;10506496;28;2148;-74
2023/07/02 02:11:27;;;;;;;;;;;;;;;16.43;100.00;95173.13;10505974;28;2116;-74
2023/07/02 02:16:30;;;;;;;;;;;;;;;16.32;100.00;95166.44;10507896;28;1966;-74
2023/07/02 02:21:33;;;;;;;;;;;;;;;16.26;100.00;95156.91;10505804;28;2248;-74
2023/07/02 02:26:35;;;;;;;;;;;;;;;16.20;100.00;95159.78;10504248;28;1976;-74
2023/07/02 02:31:38;;;;;;;;;;;;;;;16.35;100.00;95176.63;10506650;28;2033;-73
2023/07/02 02:36:40;;;;;;;;;;;;;;;16.55;100.00;95165.09;10505800;28;2282;-72
2023/07/02 02:41:43;;;;;;;;;;;;;;;16.63;100.00;95161.53;10506085;28;4524;-73
2023/07/02 02:46:45;;;;;;;;;;;;;;;16.68;100.00;95161.38;10509111;28;2096;-73
2023/07/02 02:51:48;;;;;;;;;;;;;;;16.71;100.00;95168.88;10505549;28;2065;-74
2023/07/02 02:56:50;;;;;;;;;;;;;;;16.80;100.00;95162.63;10505065;28;2149;-73
2023/07/02 03:01:53;;;;;;;;;;;;;;;16.82;100.00;95168.50;10505323;28;2117;-74
2023/07/02 03:06:56;;;;;;;;;;;;;;;16.86;100.00;95167.53;10507191;28;2430;-73
2023/07/02 03:11:58;;;;;;;;;;;;;;;16.79;100.00;95180.00;10507557;28;2194;-72
2023/07/02 03:17:01;;;;;;;;;;;;;;;16.57;100.00;95189.97;10507673;28;1979;-72
2023/07/02 03:22:03;;;;;;;;;;;;;;;15.62;100.00;95253.28;10513052;28;2011;-75
2023/07/02 03:27:06;;;;;;;;;;;;;;;14.62;100.00;95246.94;10514599;28;2139;-74
2023/07/02 03:32:08;;;;;;;;;;;;;;;14.03;100.00;95250.56;10514902;28;1976;-73
2023/07/02 03:37:11;;;;;;;;;;;;;;;13.89;100.00;95266.06;10511719;28;2042;-72
2023/07/02 03:42:13;;;;;;;;;;;;;;;13.76;100.00;95272.31;10515669;28;4543;-73
2023/07/02 03:47:19;;;;;;;;;;;;;;;13.82;100.00;95286.50;10511378;28;2001;-72
2023/07/02 03:52:21;;;;;;;;;;;;;;;13.86;100.00;95296.38;10515291;28;2097;-73
2023/07/02 03:57:23;;;;;;;;;;;;;;;13.81;100.00;95301.13;10507615;28;2004;-75
2023/07/02 04:02:26;;;;;;;;;;;;;;;13.70;100.00;95303.25;10508539;28;2085;-73
2023/07/02 04:07:29;;;;;;;;;;;;;;;13.72;100.00;95307.22;10508310;28;2707;-75
2023/07/02 04:12:32;;;;;;;;;;;;;;;13.83;100.00;95297.00;10509555;28;2038;-74
2023/07/02 04:17:35;;;;;;;;;;;;;;;13.97;100.00;95305.06;10510718;28;2079;-75
2023/07/02 04:22:37;;;;;;;;;;;;;;;14.06;100.00;95309.44;10506353;28;2080;-75
2023/07/02 04:27:39;;;;;;;;;;;;;;;14.05;100.00;95294.31;10508627;28;2396;-74
2023/07/02 04:32:52;;;;;;;;;;;;;;;14.16;100.00;95304.88;10506385;28;1975;-74
2023/07/02 04:37:55;;;;;;;;;;;;;;;14.12;100.00;95309.28;10506497;28;2209;-75
2023/07/02 04:42:58;;;;;;;;;;;;;;;14.30;100.00;95302.91;10506240;28;4521;-75
2023/07/02 04:48:03;;;;;;;;;;;;;;;14.65;100.00;95300.44;10511426;28;2240;-74
2023/07/02 04:53:06;;;;;;;;;;;;;;;15.03;100.00;95300.78;10505419;28;2106;-75
2023/07/02 04:58:08;;;;;;;;;;;;;;;15.16;100.00;95310.69;10506184;28;2137;-73
2023/07/02 05:03:11;;;;;;;;;;;;;;;15.05;100.00;95310.16;10503276;28;2419;-74
2023/07/02 05:08:14;;;;;;;;;;;;;;;15.05;100.00;95314.78;10509786;28;2018;-74
2023/07/02 05:13:16;;;;;;;;;;;;;;;14.88;100.00;95329.81;10507298;28;2046;-75
2023/07/02 05:18:19;;;;;;;;;;;;;;;14.85;100.00;95319.63;10505748;28;2035;-75
2023/07/02 05:23:22;;;;;;;;;;;;;;;14.80;100.00;95318.97;10507733;28;2121;-75
2023/07/02 05:28:24;;;;;;;;;;;;;;;14.90;100.00;95332.25;10506647;28;2069;-75
2023/07/02 05:33:26;;;;;;;;;;;;;;;15.05;100.00;95331.81;10506999;28;2092;-74
2023/07/02 05:38:29;;;;;;;;;;;;;;;15.37;100.00;95333.34;10506543;28;1997;-73
2023/07/02 05:43:32;;;;;;;;;;;;;;;15.66;100.00;95327.41;10506638;28;4568;-73
2023/07/02 05:48:34;;;;;;;;;;;;;;;15.95;100.00;95326.00;10506350;28;2163;-72
2023/07/02 05:53:37;;;;;;;;;;;;;;;16.26;100.00;95317.69;10504571;28;2178;-73
2023/07/02 05:58:40;;;;;;;;;;;;;;;16.69;100.00;95314.13;10507142;28;2284;-72
2023/07/02 06:03:49;;;;;;;;;;;;;;;16.61;100.00;95323.88;10506276;28;2252;-71
2023/07/02 06:08:53;;;;;;;;;;;;;;;16.39;100.00;95321.34;10509961;28;2209;-72
2023/07/02 06:13:55;;;;;;;;;;;;;;;16.40;100.00;95317.53;10507590;28;2016;-71
2023/07/02 06:18:58;;;;;;;;;;;;;;;16.01;100.00;95329.34;10508506;28;2061;-72
2023/07/02 06:24:01;;;;;;;;;;;;;;;16.10;100.00;95336.38;10506572;28;2120;-72
2023/07/02 06:29:04;;;;;;;;;;;;;;;16.02;100.00;95349.91;10506461;28;2151;-72
2023/07/02 06:34:08;;;;;;;;;;;;;;;15.91;100.00;95346.75;10506377;28;2365;-72
2023/07/02 06:39:11;;;;;;;;;;;;;;;15.98;100.00;95363.31;10508284;28;2128;-72
2023/07/02 06:44:13;;;;;;;;;;;;;;;15.74;100.00;95362.97;10510027;28;4520;-72
2023/07/02 06:49:16;;;;;;;;;;;;;;;15.85;100.00;95354.22;10506280;28;1990;-71
2023/07/02 06:54:19;;;;;;;;;;;;;;;15.65;100.00;95365.66;10506477;28;2331;-72
2023/07/02 06:59:22;;;;;;;;;;;;;;;15.59;100.00;95375.81;10512140;28;2112;-73
2023/07/02 07:04:24;;;;;;;;;;;;;;;15.26;100.00;95388.91;10512113;28;2036;-72
2023/07/02 07:09:27;;;;;;;;;;;;;;;15.21;100.00;95393.69;10512120;28;2061;-73
2023/07/02 07:14:29;;;;;;;;;;;;;;;15.00;100.00;95399.63;10512966;28;2100;-73
2023/07/02 07:19:33;;;;;;;;;;;;;;;14.79;100.00;95409.38;10515275;28;1981;-73
2023/07/02 07:24:35;;;;;;;;;;;;;;;14.84;100.00;95415.47;10508963;28;2025;-73
2023/07/02 07:29:38;;;;;;;;;;;;;;;14.68;100.00;95418.84;10514121;28;2108;-74
2023/07/02 07:34:40;;;;;;;;;;;;;;;14.43;100.00;95415.59;10512893;28;1992;-74
2023/07/02 07:39:42;;;;;;;;;;;;;;;14.59;100.00;95416.88;10517958;28;2017;-74
2023/07/02 07:44:45;;;;;;;;;;;;;;;14.67;100.00;95428.06;10512910;28;4555;-72
2023/07/02 07:49:47;;;;;;;;;;;;;;;14.78;100.00;95427.50;10513037;28;2433;-74
2023/07/02 07:54:49;;;;;;;;;;;;;;;14.78;100.00;95426.72;10512987;28;2006;-75
2023/07/02 07:59:52;;;;;;;;;;;;;;;15.08;100.00;95428.66;10510468;28;2062;-73
2023/07/02 08:04:54;;;;;;;;;;;;;;;15.56;100.00;95430.63;10512216;28;2053;-74
2023/07/02 08:09:57;;;;;;;;;;;;;;;15.90;100.00;95421.00;10514171;28;2013;-74
2023/07/02 08:15:00;;;;;;;;;;;;;;;16.52;100.00;95418.03;10513613;28;2021;-73
2023/07/02 08:20:04;;;;;;;;;;;;;;;17.50;100.00;95411.00;10514050;28;1957;-73
2023/07/02 08:25:06;;;;;;;;;;;;;;;17.67;100.00;95410.13;10510574;28;2012;-73
2023/07/02 08:30:08;;;;;;;;;;;;;;;17.43;100.00;95414.25;10514682;28;2010;-73
2023/07/02 08:35:12;;;;;;;;;;;;;;;17.17;100.00;95422.44;10510738;28;2189;-74
2023/07/02 08:40:14;;;;;;;;;;;;;;;17.29;100.00;95425.28;10513790;28;2140;-73
2023/07/02 08:45:17;;;;;;;;;;;;;;;17.35;100.00;95425.91;10525561;27;4545;-73
2023/07/02 08:50:19;;;;;;;;;;;;;;;16.91;100.00;95438.00;10512469;28;2010;-73
2023/07/02 08:55:22;;;;;;;;;;;;;;;16.92;100.00;95445.84;10508839;28;2256;-73
2023/07/02 09:00:24;;;;;;;;;;;;;;;17.22;100.00;95438.56;10509833;28;1983;-73
2023/07/02 09:05:27;;;;;;;;;;;;;;;16.73;100.00;95448.91;10509457;28;2045;-72
2023/07/02 09:10:30;;;;;;;;;;;;;;;16.90;100.00;95453.50;10509631;28;2130;-73
2023/07/02 09:15:32;;;;;;;;;;;;;;;17.01;100.00;95443.91;10505457;28;2005;-73
2023/07/02 09:20:35;;;;;;;;;;;;;;;17.26;100.00;95439.53;10509434;28;1981;-73
2023/07/02 09:25:37;;;;;;;;;;;;;;;17.68;100.00;95434.25;10508626;28;2244;-77
2023/07/02 09:30:40;;;;;;;;;;;;;;;18.20;100.00;95434.03;10527129;27;2120;-75
2023/07/02 09:35:43;;;;;;;;;;;;;;;18.55;100.00;95428.31;10505314;28;2122;-73
2023/07/02 09:40:46;;;;;;;;;;;;;;;18.80;100.00;95432.78;10507928;28;2049;-73
2023/07/02 09:45:50;;;;;;;;;;;;;;;18.84;100.00;95430.97;10503838;28;4527;-72
2023/07/02 09:50:52;;;;;;;;;;;;;;;19.18;100.00;95418.16;10504735;28;2114;-72
2023/07/02 09:55:55;;;;;;;;;;;;;;;19.31;100.00;95422.50;10503595;28;2001;-71
2023/07/02 10:00:57;;;;;;;;;;;;;;;19.79;100.00;95415.53;10502655;28;2207;-72
2023/07/02 10:06:00;;;;;;;;;;;;;;;19.85;100.00;95425.09;10504351;28;1987;-73
2023/07/02 10:11:02;;;;;;;;;;;;;;;19.64;100.00;95418.94;10508081;28;2109;-71
2023/07/02 10:16:05;;;;;;;;;;;;;;;19.29;100.00;95419.31;10506705;28;2029;-72
2023/07/02 10:21:08;;;;;;;;;;;;;;;20.37;100.00;95394.31;10506148;28;2108;-72
2023/07/02 10:26:10;;;;;;;;;;;;;;;21.60;100.00;95391.84;10505028;28;2034;-71
2023/07/02 10:31:13;;;;;;;;;;;;;;;22.30;100.00;95391.13;10513845;28;2057;-72
2023/07/02 10:36:16;;;;;;;;;;;;;;;22.47;100.00;95382.53;10515714;28;2029;-73
2023/07/02 10:41:18;;;;;;;;;;;;;;;22.54;100.00;95381.88;10518161;28;4630;-72
2023/07/02 10:46:21;;;;;;;;;;;;;;;22.40;100.00;95379.63;10516137;28;1972;-72
2023/07/02 10:51:24;;;;;;;;;;;;;;;23.06;100.00;95384.13;10514813;28;1954;-72
2023/07/02 10:56:26;;;;;;;;;;;;;;;23.16;100.00;95372.56;10513534;28;2025;-73
2023/07/02 11:01:29;;;;;;;;;;;;;;;23.74;100.00;95374.38;10514513;28;2104;-73
2023/07/02 11:06:32;;;;;;;;;;;;;;;23.75;100.00;95367.72;10517770;28;2067;-73
2023/07/02 11:11:34;;;;;;;;;;;;;;;23.29;100.00;95364.16;10512887;28;2232;-72
2023/07/02 11:16:36;;;;;;;;;;;;;;;24.59;100.00;95355.59;10515533;28;2004;-74
2023/07/02 11:21:40;;;;;;;;;;;;;;;24.30;100.00;95351.63;10514683;28;2209;-73
2023/07/02 11:26:43;;;;;;;;;;;;;;;23.80;100.00;95347.41;10516183;28;2178;-82
2023/07/02 11:31:45;;;;;;;;;;;;;;;23.17;100.00;95354.16;10518400;28;2092;-75
2023/07/02 11:36:48;;;;;;;;;;;;;;;23.79;100.00;95346.59;10516521;28;2234;-75
2023/07/02 11:41:50;;;;;;;;;;;;;;;24.37;100.00;95338.06;10516401;28;4576;-75
2023/07/02 11:46:53;;;;;;;;;;;;;;;23.53;100.00;95352.03;10517160;28;2183;-75
2023/07/02 11:51:55;;;;;;;;;;;;;;;23.65;100.00;95338.13;10515591;28;1989;-75
2023/07/02 11:56:58;;;;;;;;;;;;;;;22.94;100.00;95332.19;10515707;28;2140;-75
2023/07/02 12:02:00;;;;;;;;;;;;;;;23.49;100.00;95332.78;10516578;28;2087;-77
2023/07/02 12:07:03;;;;;;;;;;;;;;;23.60;100.00;95325.50;10512537;28;2240;-75
2023/07/02 12:12:05;;;;;;;;;;;;;;;23.18;100.00;95317.34;10511615;28;2338;-75
2023/07/02 12:17:08;;;;;;;;;;;;;;;23.47;100.00;95318.63;10514290;28;1966;-75
2023/07/02 12:22:10;;;;;;;;;;;;;;;23.05;100.00;95305.78;10509936;28;2123;-75
2023/07/02 12:27:13;;;;;;;;;;;;;;;23.30;100.00;95305.41;10513106;28;1969;-76
2023/07/02 12:32:15;;;;;;;;;;;;;;;23.07;100.00;95308.94;10514997;28;2384;-76
2023/07/02 12:37:20;;;;;;;;;;;;;;;22.46;100.00;95304.25;10512940;28;2053;-75
2023/07/02 12:42:23;;;;;;;;;;;;;;;22.46;100.00;95307.00;10515466;28;1982;-75
2023/07/02 12:47:26;;;;;;;;;;;;;;;22.65;100.00;95296.03;10517849;28;2161;-76
2023/07/02 12:52:28;;;;;;;;;;;;;;;23.54;100.00;95291.31;10510762;28;1953;-75
2023/07/02 12:57:30;;;;;;;;;;;;;;;24.10;100.00;95276.84;10512142;28;1923;-76
2023/07/02 13:02:33;;;;;;;;;;;;;;;24.05;100.00;95274.44;10512576;28;1923;-78
2023/07/02 13:07:48;;;;;;;;;;;;;;;23.82;100.00;95270.97;10510746;28;1957;-77
2023/07/02 13:12:50;;;;;;;;;;;;;;;24.44;100.00;95283.19;10508532;28;1903;-75
2023/07/02 13:17:53;;;;;;;;;;;;;;;24.49;98.82;95271.06;10507468;28;1996;-76
2023/07/02 13:22:56;;;;;;;;;;;;;;;24.68;100.00;95275.59;10507896;28;1921;-75
2023/07/02 13:27:58;;;;;;;;;;;;;;;24.14;99.37;95260.44;10510081;28;2439;-76
2023/07/02 13:33:01;;;;;;;;;;;;;;;24.73;95.23;95259.56;10513706;28;1998;-75
2023/07/02 13:38:04;;;;;;;;;;;;;;;25.10;88.36;95269.78;10510291;28;1915;-73
2023/07/02 13:43:07;;;;;;;;;;;;;;;24.92;90.21;95268.78;10516478;28;1948;-75
2023/07/02 13:48:09;;;;;;;;;;;;;;;25.12;81.56;95253.69;10510977;28;1989;-75
2023/07/02 13:53:11;;;;;;;;;;;;;;;25.11;84.29;95263.09;10507212;28;1871;-75
2023/07/02 13:58:14;;;;;;;;;;;;;;;25.05;90.33;95253.63;10509684;28;1985;-75
2023/07/02 14:03:30;;;;;;;;;;;;;;;25.62;78.48;95256.81;10508053;28;1890;-75
2023/07/02 14:08:32;;;;;;;;;;;;;;;25.10;83.52;95267.03;10508493;28;1964;-75
2023/07/02 14:13:36;;;;;;;;;;;;;;;25.31;82.48;95260.91;10505855;28;1891;-75
2023/07/02 14:18:40;;;;;;;;;;;;;;;25.55;80.21;95254.81;10506130;28;1881;-78
2023/07/02 14:23:42;;;;;;;;;;;;;;;25.48;79.82;95259.47;10505449;28;2393;-76
2023/07/02 14:28:45;;;;;;;;;;;;;;;25.90;72.49;95253.50;10509225;28;2006;-75
2023/07/02 14:33:47;;;;;;;;;;;;;;;26.04;74.46;95263.81;10507889;28;1938;-76
2023/07/02 14:38:50;;;;;;;;;;;;;;;25.63;72.63;95250.13;10506429;28;2043;-75
2023/07/02 14:43:52;;;;;;;;;;;;;;;25.86;74.93;95242.47;10513300;28;4538;-76
2023/07/02 14:48:55;;;;;;;;;;;;;;;24.96;79.05;95250.38;10507552;28;2009;-76
2023/07/02 14:53:57;;;;;;;;;;;;;;;25.68;74.50;95246.25;10508324;28;2061;-75
2023/07/02 14:58:59;;;;;;;;;;;;;;;25.00;77.23;95254.75;10509566;28;1979;-75
2023/07/02 15:04:02;;;;;;;;;;;;;;;25.12;79.18;95250.13;10505746;28;2002;-75
2023/07/02 15:09:04;;;;;;;;;;;;;;;25.23;79.92;95246.31;10506461;28;1919;-75
2023/07/02 15:14:07;;;;;;;;;;;;;;;25.79;74.88;95250.69;10506809;28;1913;-75
2023/07/02 15:19:10;;;;;;;;;;;;;;;24.92;77.23;95255.03;10517281;28;2586;-75
2023/07/02 15:24:13;;;;;;;;;;;;;;;25.20;75.53;95243.53;10511509;28;1908;-74
2023/07/02 15:29:15;;;;;;;;;;;;;;;24.82;81.56;95242.78;10513214;28;2394;-75
2023/07/02 15:34:19;;;;;;;;;;;;;;;25.17;81.04;95242.34;10519021;28;1982;-75
2023/07/02 15:39:22;;;;;;;;;;;;;;;25.41;76.67;95238.19;10517783;28;1969;-75
2023/07/02 15:44:25;;;;;;;;;;;;;;;26.10;71.33;95234.72;10513999;28;4495;-76
2023/07/02 15:49:28;;;;;;;;;;;;;;;25.74;71.30;95233.72;10517604;28;1968;-75
2023/07/02 15:54:30;;;;;;;;;;;;;;;25.21;74.93;95234.13;10511305;28;1947;-76
2023/07/02 15:59:33;;;;;;;;;;;;;;;24.79;79.89;95230.56;10514453;28;1967;-74
2023/07/02 16:04:35;;;;;;;;;;;;;;;24.97;77.25;95235.44;10516161;28;1949;-75
2023/07/02 16:09:39;;;;;;;;;;;;;;;24.88;79.42;95232.22;10512826;28;2878;-74
2023/07/02 16:14:42;;;;;;;;;;;;;;;25.19;75.13;95217.97;10513415;28;2291;-74
2023/07/02 16:19:44;;;;;;;;;;;;;;;25.14;73.21;95223.84;10512605;28;1943;-76
2023/07/02 16:24:47;;;;;;;;;;;;;;;24.34;76.63;95225.38;10513803;28;1950;-75
2023/07/02 16:29:49;;;;;;;;;;;;;;;24.23;80.62;95227.97;10512379;28;1965;-75
2023/07/02 16:34:52;;;;;;;;;;;;;;;24.18;85.25;95231.84;10513250;28;2051;-75
2023/07/02 16:39:57;;;;;;;;;;;;;;;23.82;82.60;95238.03;10512919;28;1933;-75
2023/07/02 16:45:05;;;;;;;;;;;;;;;24.03;85.52;95243.00;10517364;28;4497;-76
2023/07/02 16:50:07;;;;;;;;;;;;;;;23.76;84.88;95245.00;10514475;28;1971;-76
2023/07/02 16:55:10;;;;;;;;;;;;;;;23.96;87.47;95241.75;10513323;28;1974;-75
2023/07/02 17:00:12;;;;;;;;;;;;;;;23.82;88.50;95249.03;10512837;28;1876;-75
2023/07/02 17:05:15;;;;;;;;;;;;;;;23.70;88.64;95250.81;10510233;28;1981;-75
2023/07/02 17:10:17;;;;;;;;;;;;;;;24.07;85.66;95239.16;10513632;28;1986;-75
2023/07/02 17:15:20;;;;;;;;;;;;;;;23.88;88.32;95247.53;10510838;28;1925;-75
2023/07/02 17:20:22;;;;;;;;;;;;;;;23.55;87.18;95257.25;10514512;28;1894;-75
2023/07/02 17:25:25;;;;;;;;;;;;;;;23.54;92.12;95254.84;10512005;28;1975;-77
2023/07/02 17:30:27;;;;;;;;;;;;;;;23.12;92.33;95245.59;10506269;28;1982;-77
2023/07/02 17:35:30;;;;;;;;;;;;;;;23.08;94.32;95252.94;10510908;28;1959;-76
2023/07/02 17:40:33;;;;;;;;;;;;;;;22.83;94.61;95257.97;10512292;28;1916;-75
2023/07/02 17:45:35;;;;;;;;;;;;;;;22.62;95.47;95250.16;10503223;28;4480;-76
2023/07/02 17:50:37;;;;;;;;;;;;;;;22.54;97.55;95248.47;10508644;28;1925;-74
2023/07/02 17:55:40;;;;;;;;;;;;;;;22.37;100.00;95246.16;10514876;28;1901;-75
2023/07/02 18:00:42;;;;;;;;;;;;;;;22.10;100.00;95246.03;10507305;28;1977;-76
2023/07/02 18:05:45;;;;;;;;;;;;;;;21.99;100.00;95253.19;10509107;28;2024;-77
2023/07/02 18:10:48;;;;;;;;;;;;;;;21.97;100.00;95258.25;10506653;28;2274;-75
2023/07/02 18:15:51;;;;;;;;;;;;;;;21.79;100.00;95257.06;10507764;28;1930;-75
2023/07/02 18:20:54;;;;;;;;;;;;;;;21.67;100.00;95251.72;10497686;28;1910;-72
2023/07/02 18:25:57;;;;;;;;;;;;;;;21.58;100.00;95263.66;10505561;28;2023;-76
2023/07/02 18:31:00;;;;;;;;;;;;;;;21.47;100.00;95262.59;10502493;28;1981;-75
2023/07/02 18:36:02;;;;;;;;;;;;;;;21.25;100.00;95265.97;10493829;28;1906;-72
2023/07/02 18:41:05;;;;;;;;;;;;;;;21.04;100.00;95261.56;10500219;28;4655;-74
2023/07/02 18:46:07;;;;;;;;;;;;;;;20.84;100.00;95267.28;10502079;28;1959;-76
2023/07/02 18:51:10;;;;;;;;;;;;;;;20.67;100.00;95268.38;10505363;28;1922;-77
2023/07/02 18:56:12;;;;;;;;;;;;;;;20.57;100.00;95274.38;10504996;28;1923;-76
2023/07/02 19:01:16;;;;;;;;;;;;;;;20.50;100.00;95270.31;10514993;28;1941;-73
2023/07/02 19:06:19;;;;;;;;;;;;;;;20.50;100.00;95278.50;10511253;28;2317;-75
2023/07/02 19:11:21;;;;;;;;;;;;;;;20.56;100.00;95278.25;10510645;28;2086;-75
2023/07/02 19:16:24;;;;;;;;;;;;;;;20.56;100.00;95287.25;10512908;28;1979;-74
2023/07/02 19:21:27;;;;;;;;;;;;;;;20.58;100.00;95281.44;10509461;28;2011;-73
2023/07/02 19:26:29;;;;;;;;;;;;;;;20.63;100.00;95301.09;10512386;28;2041;-74
2023/07/02 19:31:32;;;;;;;;;;;;;;;20.51;100.00;95292.94;10514452;28;1943;-75
2023/07/02 19:36:34;;;;;;;;;;;;;;;20.37;100.00;95308.91;10509973;28;1915;-74
2023/07/02 19:41:37;;;;;;;;;;;;;;;20.37;100.00;95309.69;10515354;28;2338;-83
2023/07/02 19:46:39;;;;;;;;;;;;;;;20.32;100.00;95317.34;10516359;28;2041;-82
2023/07/02 19:51:46;;;;;;;;;;;;;;;20.18;100.00;95323.97;10523914;28;2003;-82
2023/07/02 19:56:49;;;;;;;;;;;;;;;20.08;100.00;95323.66;10514836;28;1959;-81
2023/07/02 20:01:51;;;;;;;;;;;;;;;19.91;100.00;95328.25;10513978;28;2368;-80
2023/07/02 20:06:54;;;;;;;;;;;;;;;19.77;100.00;95335.97;10514994;28;2018;-82
2023/07/02 20:11:57;;;;;;;;;;;;;;;19.72;100.00;95349.84;10520306;28;1922;-87
2023/07/02 20:17:01;;;;;;;;;;;;;;;19.79;100.00;95355.53;10513594;28;1917;-77
2023/07/02 20:22:04;;;;;;;;;;;;;;;19.82;100.00;95359.50;10512196;28;1929;-76
2023/07/02 20:27:10;;;;;;;;;;;;;;;19.72;100.00;95366.19;10542560;27;2044;-77
2023/07/02 20:32:20;;;;;;;;;;;;;;;19.63;100.00;95363.59;10513891;28;1972;-75
2023/07/02 20:42:48;;;;;;;;;;;;;;;19.58;100.00;95376.66;10516273;28;4587;-76
2023/07/02 20:48:03;;;;;;;;;;;;;;;19.62;100.00;95378.38;10509733;28;2237;-78
2023/07/02 20:53:08;;;;;;;;;;;;;;;19.56;100.00;95374.25;10507858;28;1880;-77
2023/07/02 20:58:14;;;;;;;;;;;;;;;19.54;100.00;95370.28;10509866;28;2409;-74
2023/07/02 21:03:23;;;;;;;;;;;;;;;19.35;100.00;95373.56;10504859;28;2065;-75
2023/07/02 21:08:29;;;;;;;;;;;;;;;19.30;100.00;95385.47;10507760;28;1912;-74
2023/07/02 21:13:39;;;;;;;;;;;;;;;19.37;100.00;95377.53;10509247;28;1989;-75
2023/07/02 21:18:44;;;;;;;;;;;;;;;19.38;100.00;95387.28;10510034;28;2021;-75
2023/07/02 21:23:50;;;;;;;;;;;;;;;19.32;100.00;95385.13;10508062;28;1916;-75
2023/07/02 21:28:55;;;;;;;;;;;;;;;19.32;100.00;95396.81;10510392;28;1949;-76
2023/07/02 21:33:58;;;;;;;;;;;;;;;19.37;100.00;95398.53;10528691;27;1915;-76
2023/07/02 21:39:01;;;;;;;;;;;;;;;19.38;100.00;95402.84;10527946;27;2276;-75
2023/07/02 21:44:14;;;;;;;;;;;;;;;19.41;100.00;95404.91;10509007;28;4474;-76
2023/07/02 21:49:20;;;;;;;;;;;;;;;19.37;100.00;95404.00;10511162;28;1917;-76
2023/07/02 21:54:31;;;;;;;;;;;;;;;19.37;100.00;95421.13;10508739;28;2266;-75
2023/07/02 21:59:37;;;;;;;;;;;;;;;19.40;100.00;95425.09;10504741;28;2036;-75
2023/07/02 22:04:47;;;;;;;;;;;;;;;19.43;100.00;95421.72;10505958;28;2129;-74
2023/07/02 22:09:53;;;;;;;;;;;;;;;19.44;100.00;95418.66;10535465;27;1913;-74
2023/07/02 22:15:00;;;;;;;;;;;;;;;19.38;100.00;95428.19;10503575;28;1891;-74
2023/07/02 22:20:10;;;;;;;;;;;;;;;19.38;100.00;95425.44;10538978;27;1980;-74
2023/07/02 22:25:16;;;;;;;;;;;;;;;19.36;100.00;95426.94;10506282;28;1979;-75
2023/07/02 22:30:33;;;;;;;;;;;;;;;19.35;100.00;95419.91;10509175;28;2123;-74
2023/07/02 22:35:45;;;;;;;;;;;;;;;19.27;100.00;95432.47;10509236;28;1906;-75
2023/07/02 22:41:03;;;;;;;;;;;;;;;19.22;100.00;95429.19;10506178;28;1965;-74
2023/07/02 22:46:06;;;;;;;;;;;;;;;19.08;100.00;95434.91;10507716;28;2026;-74
2023/07/02 22:51:14;;;;;;;;;;;;;;;18.89;100.00;95433.50;10504582;28;1973;-73
2023/07/02 22:56:17;;;;;;;;;;;;;;;18.76;100.00;95433.75;10508746;28;2177;-75
2023/07/02 23:01:23;;;;;;;;;;;;;;;18.60;100.00;95437.06;10539711;27;1903;-77
2023/07/02 23:06:26;;;;;;;;;;;;;;;18.45;100.00;95442.31;10507943;28;2038;-77
2023/07/02 23:11:32;;;;;;;;;;;;;;;18.49;100.00;95437.81;10507031;28;1962;-76
2023/07/02 23:16:35;;;;;;;;;;;;;;;18.50;100.00;95425.78;10507314;28;1898;-77
2023/07/02 23:21:45;;;;;;;;;;;;;;;18.30;100.00;95427.38;10503828;28;2143;-76
2023/07/02 23:26:48;;;;;;;;;;;;;;;18.26;100.00;95427.25;10506474;28;1962;-74
2023/07/02 23:31:53;;;;;;;;;;;;;;;18.29;100.00;95431.22;10508467;28;1923;-74
2023/07/02 23:42:25;;;;;;;;;;;;;;;18.22;100.00;95420.88;10516995;28;4532;-76
2023/07/02 23:47:28;;;;;;;;;;;;;;;17.99;100.00;95422.28;10514444;28;2278;-76
2023/07/02 23:52:36;;;;;;;;;;;;;;;17.80;100.00;95420.78;10512505;28;1992;-74
2023/07/02 23:57:43;;;;;;;;;;;;;;;17.62;100.00;95424.69;10515465;28;2082;-76
